sensor_id;sensor_type;location;lat;lon;timestamp;P1;durP1;ratioP1;P2;durP2;ratioP2
45208;SDS011;30951;43.994;26.260;2022-11-20T00:00:47;71.30;;;40.70;;
45208;SDS011;30951;43.994;26.260;2022-11-20T00:03:12;82.10;;;45.17;;
45208;SDS011;30951;43.994;26.260;2022-11-20T00:05:38;75.35;;;43.45;;
45208;SDS011;30951;43.994;26.260;2022-11-20T00:08:03;73.68;;;41.67;;
45208;SDS011;30951;43.994;26.260;2022-11-20T00:10:29;77.97;;;44.45;;
45208;SDS011;30951;43.994;26.260;2022-11-20T00:12:55;74.05;;;42.53;;
45208;SDS011;30951;43.994;26.260;2022-11-20T00:15:20;63.55;;;40.40;;
45208;SDS011;30951;43.994;26.260;2022-11-20T00:17:46;74.53;;;45.53;;
45208;SDS011;30951;43.994;26.260;2022-11-20T00:20:11;68.88;;;43.40;;
45208;SDS011;30951;43.994;26.260;2022-11-20T00:22:38;72.13;;;41.20;;
45208;SDS011;30951;43.994;26.260;2022-11-20T00:25:03;68.15;;;41.40;;
45208;SDS011;30951;43.994;26.260;2022-11-20T00:27:29;74.28;;;43.28;;
45208;SDS011;30951;43.994;26.260;2022-11-20T00:29:55;74.40;;;42.15;;
45208;SDS011;30951;43.994;26.260;2022-11-20T00:32:20;58.03;;;35.47;;
45208;SDS011;30951;43.994;26.260;2022-11-20T00:34:46;58.35;;;34.28;;
45208;SDS011;30951;43.994;26.260;2022-11-20T00:37:11;46.95;;;29.08;;
45208;SDS011;30951;43.994;26.260;2022-11-20T00:39:37;65.38;;;34.70;;
45208;SDS011;30951;43.994;26.260;2022-11-20T00:42:02;57.35;;;36.58;;
45208;SDS011;30951;43.994;26.260;2022-11-20T00:44:28;58.92;;;37.17;;
45208;SDS011;30951;43.994;26.260;2022-11-20T00:46:53;61.50;;;36.88;;
45208;SDS011;30951;43.994;26.260;2022-11-20T00:49:19;55.08;;;35.05;;
45208;SDS011;30951;43.994;26.260;2022-11-20T00:51:44;59.88;;;34.67;;
45208;SDS011;30951;43.994;26.260;2022-11-20T00:54:10;60.58;;;36.75;;
45208;SDS011;30951;43.994;26.260;2022-11-20T00:56:35;60.85;;;35.65;;
45208;SDS011;30951;43.994;26.260;2022-11-20T00:59:01;58.83;;;33.95;;
45208;SDS011;30951;43.994;26.260;2022-11-20T01:01:26;65.68;;;36.85;;
45208;SDS011;30951;43.994;26.260;2022-11-20T01:03:55;63.85;;;35.97;;
45208;SDS011;30951;43.994;26.260;2022-11-20T01:06:26;64.22;;;31.90;;
45208;SDS011;30951;43.994;26.260;2022-11-20T01:08:54;56.30;;;32.13;;
45208;SDS011;30951;43.994;26.260;2022-11-20T01:11:22;52.97;;;30.83;;
45208;SDS011;30951;43.994;26.260;2022-11-20T01:13:50;58.25;;;30.05;;
45208;SDS011;30951;43.994;26.260;2022-11-20T01:16:21;58.40;;;30.67;;
45208;SDS011;30951;43.994;26.260;2022-11-20T01:18:49;44.72;;;27.50;;
45208;SDS011;30951;43.994;26.260;2022-11-20T01:21:20;53.85;;;29.27;;
45208;SDS011;30951;43.994;26.260;2022-11-20T01:23:50;50.95;;;29.63;;
45208;SDS011;30951;43.994;26.260;2022-11-20T01:26:17;51.00;;;26.38;;
45208;SDS011;30951;43.994;26.260;2022-11-20T01:28:44;52.95;;;28.05;;
45208;SDS011;30951;43.994;26.260;2022-11-20T01:31:44;52.92;;;25.63;;
45208;SDS011;30951;43.994;26.260;2022-11-20T01:34:23;52.95;;;24.17;;
45208;SDS011;30951;43.994;26.260;2022-11-20T01:36:48;48.67;;;26.67;;
45208;SDS011;30951;43.994;26.260;2022-11-20T01:39:18;40.95;;;20.67;;
45208;SDS011;30951;43.994;26.260;2022-11-20T01:41:48;43.47;;;23.58;;
45208;SDS011;30951;43.994;26.260;2022-11-20T01:52:36;66.97;;;28.77;;
45208;SDS011;30951;43.994;26.260;2022-11-20T01:55:13;53.42;;;28.00;;
45208;SDS011;30951;43.994;26.260;2022-11-20T01:57:41;66.20;;;28.58;;
45208;SDS011;30951;43.994;26.260;2022-11-20T02:00:10;52.85;;;25.77;;
45208;SDS011;30951;43.994;26.260;2022-11-20T02:02:37;55.55;;;29.35;;
45208;SDS011;30951;43.994;26.260;2022-11-20T02:05:09;39.30;;;24.73;;
45208;SDS011;30951;43.994;26.260;2022-11-20T02:07:39;42.55;;;24.40;;
45208;SDS011;30951;43.994;26.260;2022-11-20T02:10:05;51.38;;;24.45;;
45208;SDS011;30951;43.994;26.260;2022-11-20T02:12:31;54.20;;;26.85;;
45208;SDS011;30951;43.994;26.260;2022-11-20T02:15:15;38.80;;;20.27;;
45208;SDS011;30951;43.994;26.260;2022-11-20T02:17:40;44.13;;;22.10;;
45208;SDS011;30951;43.994;26.260;2022-11-20T02:20:06;43.85;;;27.20;;
45208;SDS011;30951;43.994;26.260;2022-11-20T02:22:34;57.63;;;29.92;;
45208;SDS011;30951;43.994;26.260;2022-11-20T02:25:03;60.13;;;30.30;;
45208;SDS011;30951;43.994;26.260;2022-11-20T02:27:30;62.60;;;28.75;;
45208;SDS011;30951;43.994;26.260;2022-11-20T02:32:33;61.35;;;29.67;;
45208;SDS011;30951;43.994;26.260;2022-11-20T02:35:35;49.03;;;26.30;;
45208;SDS011;30951;43.994;26.260;2022-11-20T02:37:55;50.67;;;29.35;;
45208;SDS011;30951;43.994;26.260;2022-11-20T02:40:22;62.42;;;30.92;;
45208;SDS011;30951;43.994;26.260;2022-11-20T02:42:47;55.67;;;31.60;;
45208;SDS011;30951;43.994;26.260;2022-11-20T02:45:13;63.38;;;31.42;;
45208;SDS011;30951;43.994;26.260;2022-11-20T02:47:39;62.53;;;29.17;;
45208;SDS011;30951;43.994;26.260;2022-11-20T02:50:05;58.58;;;30.67;;
45208;SDS011;30951;43.994;26.260;2022-11-20T02:52:31;50.65;;;27.35;;
45208;SDS011;30951;43.994;26.260;2022-11-20T02:54:56;55.55;;;28.45;;
45208;SDS011;30951;43.994;26.260;2022-11-20T02:57:22;68.97;;;33.72;;
45208;SDS011;30951;43.994;26.260;2022-11-20T02:59:47;65.20;;;34.47;;
45208;SDS011;30951;43.994;26.260;2022-11-20T03:02:13;60.33;;;33.25;;
45208;SDS011;30951;43.994;26.260;2022-11-20T03:04:38;68.80;;;34.17;;
45208;SDS011;30951;43.994;26.260;2022-11-20T03:07:04;60.13;;;33.47;;
45208;SDS011;30951;43.994;26.260;2022-11-20T03:09:29;71.15;;;35.38;;
45208;SDS011;30951;43.994;26.260;2022-11-20T03:11:55;66.10;;;32.15;;
45208;SDS011;30951;43.994;26.260;2022-11-20T03:14:21;73.18;;;37.47;;
45208;SDS011;30951;43.994;26.260;2022-11-20T03:16:47;63.85;;;34.25;;
45208;SDS011;30951;43.994;26.260;2022-11-20T03:19:12;59.88;;;32.03;;
45208;SDS011;30951;43.994;26.260;2022-11-20T03:21:38;71.07;;;39.80;;
45208;SDS011;30951;43.994;26.260;2022-11-20T03:24:04;72.45;;;40.22;;
45208;SDS011;30951;43.994;26.260;2022-11-20T03:26:30;67.53;;;39.83;;
45208;SDS011;30951;43.994;26.260;2022-11-20T03:28:59;62.53;;;34.67;;
45208;SDS011;30951;43.994;26.260;2022-11-20T03:31:28;79.68;;;44.45;;
45208;SDS011;30951;43.994;26.260;2022-11-20T03:33:58;67.25;;;37.55;;
45208;SDS011;30951;43.994;26.260;2022-11-20T03:36:24;70.72;;;37.90;;
45208;SDS011;30951;43.994;26.260;2022-11-20T03:38:50;81.15;;;42.90;;
45208;SDS011;30951;43.994;26.260;2022-11-20T03:41:22;76.15;;;39.53;;
45208;SDS011;30951;43.994;26.260;2022-11-20T03:43:54;68.50;;;36.90;;
45208;SDS011;30951;43.994;26.260;2022-11-20T03:46:20;74.20;;;37.85;;
45208;SDS011;30951;43.994;26.260;2022-11-20T03:48:46;90.38;;;42.60;;
45208;SDS011;30951;43.994;26.260;2022-11-20T03:51:13;91.88;;;50.63;;
45208;SDS011;30951;43.994;26.260;2022-11-20T03:53:39;79.18;;;40.80;;
45208;SDS011;30951;43.994;26.260;2022-11-20T03:56:06;88.50;;;46.85;;
45208;SDS011;30951;43.994;26.260;2022-11-20T03:58:32;78.68;;;40.97;;
45208;SDS011;30951;43.994;26.260;2022-11-20T04:01:04;67.80;;;36.05;;
45208;SDS011;30951;43.994;26.260;2022-11-20T04:03:34;76.15;;;41.10;;
45208;SDS011;30951;43.994;26.260;2022-11-20T04:06:07;63.15;;;33.50;;
45208;SDS011;30951;43.994;26.260;2022-11-20T04:08:36;65.75;;;35.45;;
45208;SDS011;30951;43.994;26.260;2022-11-20T04:11:15;79.13;;;37.80;;
45208;SDS011;30951;43.994;26.260;2022-11-20T04:13:47;72.30;;;36.10;;
45208;SDS011;30951;43.994;26.260;2022-11-20T04:16:13;67.78;;;35.70;;
45208;SDS011;30951;43.994;26.260;2022-11-20T04:18:39;80.10;;;38.83;;
45208;SDS011;30951;43.994;26.260;2022-11-20T04:21:05;69.05;;;37.70;;
45208;SDS011;30951;43.994;26.260;2022-11-20T04:23:31;68.70;;;35.85;;
45208;SDS011;30951;43.994;26.260;2022-11-20T04:26:03;60.67;;;33.47;;
45208;SDS011;30951;43.994;26.260;2022-11-20T04:28:30;69.25;;;37.25;;
45208;SDS011;30951;43.994;26.260;2022-11-20T04:31:15;70.20;;;34.22;;
45208;SDS011;30951;43.994;26.260;2022-11-20T04:33:45;60.58;;;30.52;;
45208;SDS011;30951;43.994;26.260;2022-11-20T04:36:12;56.97;;;26.98;;
45208;SDS011;30951;43.994;26.260;2022-11-20T04:38:38;71.13;;;36.88;;
45208;SDS011;30951;43.994;26.260;2022-11-20T04:41:05;57.90;;;28.08;;
45208;SDS011;30951;43.994;26.260;2022-11-20T04:43:32;67.55;;;36.47;;
45208;SDS011;30951;43.994;26.260;2022-11-20T04:45:58;79.10;;;37.67;;
45208;SDS011;30951;43.994;26.260;2022-11-20T04:48:25;72.13;;;35.78;;
45208;SDS011;30951;43.994;26.260;2022-11-20T04:50:51;71.60;;;36.17;;
45208;SDS011;30951;43.994;26.260;2022-11-20T04:53:17;78.68;;;37.40;;
45208;SDS011;30951;43.994;26.260;2022-11-20T04:55:42;79.85;;;38.38;;
45208;SDS011;30951;43.994;26.260;2022-11-20T04:58:08;79.88;;;36.92;;
45208;SDS011;30951;43.994;26.260;2022-11-20T05:00:34;94.15;;;40.50;;
45208;SDS011;30951;43.994;26.260;2022-11-20T05:02:59;84.07;;;42.33;;
45208;SDS011;30951;43.994;26.260;2022-11-20T05:05:25;88.20;;;43.92;;
45208;SDS011;30951;43.994;26.260;2022-11-20T05:07:50;94.30;;;42.00;;
45208;SDS011;30951;43.994;26.260;2022-11-20T05:10:16;85.20;;;40.15;;
45208;SDS011;30951;43.994;26.260;2022-11-20T05:12:41;85.57;;;38.33;;
45208;SDS011;30951;43.994;26.260;2022-11-20T05:15:07;98.13;;;45.15;;
45208;SDS011;30951;43.994;26.260;2022-11-20T05:17:32;95.97;;;41.10;;
45208;SDS011;30951;43.994;26.260;2022-11-20T05:19:58;97.95;;;44.20;;
45208;SDS011;30951;43.994;26.260;2022-11-20T05:22:23;98.90;;;44.28;;
45208;SDS011;30951;43.994;26.260;2022-11-20T05:24:49;111.35;;;43.33;;
45208;SDS011;30951;43.994;26.260;2022-11-20T05:27:14;115.50;;;45.42;;
45208;SDS011;30951;43.994;26.260;2022-11-20T05:29:40;121.45;;;47.30;;
45208;SDS011;30951;43.994;26.260;2022-11-20T05:32:05;116.13;;;45.75;;
45208;SDS011;30951;43.994;26.260;2022-11-20T05:34:34;136.93;;;47.85;;
45208;SDS011;30951;43.994;26.260;2022-11-20T05:36:59;120.20;;;49.45;;
45208;SDS011;30951;43.994;26.260;2022-11-20T05:39:24;130.57;;;50.83;;
45208;SDS011;30951;43.994;26.260;2022-11-20T05:41:50;136.60;;;48.25;;
45208;SDS011;30951;43.994;26.260;2022-11-20T05:44:35;132.90;;;49.63;;
45208;SDS011;30951;43.994;26.260;2022-11-20T05:47:01;118.47;;;46.72;;
45208;SDS011;30951;43.994;26.260;2022-11-20T05:49:26;124.65;;;48.13;;
45208;SDS011;30951;43.994;26.260;2022-11-20T05:51:52;129.68;;;48.83;;
45208;SDS011;30951;43.994;26.260;2022-11-20T05:54:17;102.40;;;40.97;;
45208;SDS011;30951;43.994;26.260;2022-11-20T05:56:43;103.53;;;44.75;;
45208;SDS011;30951;43.994;26.260;2022-11-20T05:59:08;110.32;;;41.50;;
45208;SDS011;30951;43.994;26.260;2022-11-20T06:01:34;109.85;;;40.33;;
45208;SDS011;30951;43.994;26.260;2022-11-20T06:04:01;97.28;;;39.30;;
45208;SDS011;30951;43.994;26.260;2022-11-20T06:06:26;93.43;;;37.15;;
45208;SDS011;30951;43.994;26.260;2022-11-20T06:08:52;96.32;;;40.75;;
45208;SDS011;30951;43.994;26.260;2022-11-20T06:11:17;83.07;;;36.67;;
45208;SDS011;30951;43.994;26.260;2022-11-20T06:13:43;91.72;;;38.17;;
45208;SDS011;30951;43.994;26.260;2022-11-20T06:16:10;93.03;;;37.25;;
45208;SDS011;30951;43.994;26.260;2022-11-20T06:18:36;96.30;;;36.05;;
45208;SDS011;30951;43.994;26.260;2022-11-20T06:23:30;82.57;;;33.15;;
45208;SDS011;30951;43.994;26.260;2022-11-20T06:25:57;79.22;;;33.92;;
45208;SDS011;30951;43.994;26.260;2022-11-20T06:28:23;87.00;;;34.70;;
45208;SDS011;30951;43.994;26.260;2022-11-20T06:30:48;85.60;;;34.67;;
45208;SDS011;30951;43.994;26.260;2022-11-20T06:33:14;89.47;;;34.65;;
45208;SDS011;30951;43.994;26.260;2022-11-20T06:35:39;85.18;;;35.88;;
45208;SDS011;30951;43.994;26.260;2022-11-20T06:38:05;86.55;;;36.17;;
45208;SDS011;30951;43.994;26.260;2022-11-20T06:40:30;76.65;;;33.25;;
45208;SDS011;30951;43.994;26.260;2022-11-20T06:42:56;71.82;;;28.00;;
45208;SDS011;30951;43.994;26.260;2022-11-20T06:45:21;68.88;;;29.67;;
45208;SDS011;30951;43.994;26.260;2022-11-20T06:47:47;68.28;;;30.17;;
45208;SDS011;30951;43.994;26.260;2022-11-20T06:50:12;66.47;;;28.15;;
45208;SDS011;30951;43.994;26.260;2022-11-20T06:52:38;51.88;;;24.48;;
45208;SDS011;30951;43.994;26.260;2022-11-20T06:55:04;60.53;;;28.40;;
45208;SDS011;30951;43.994;26.260;2022-11-20T06:57:29;64.43;;;27.77;;
45208;SDS011;30951;43.994;26.260;2022-11-20T06:59:55;47.53;;;23.85;;
45208;SDS011;30951;43.994;26.260;2022-11-20T07:02:20;57.75;;;26.05;;
45208;SDS011;30951;43.994;26.260;2022-11-20T07:04:46;56.15;;;21.08;;
45208;SDS011;30951;43.994;26.260;2022-11-20T07:07:11;47.72;;;22.02;;
45208;SDS011;30951;43.994;26.260;2022-11-20T07:09:37;36.17;;;19.63;;
45208;SDS011;30951;43.994;26.260;2022-11-20T07:12:02;54.17;;;22.40;;
45208;SDS011;30951;43.994;26.260;2022-11-20T07:14:28;39.95;;;17.92;;
45208;SDS011;30951;43.994;26.260;2022-11-20T07:16:53;43.53;;;19.50;;
45208;SDS011;30951;43.994;26.260;2022-11-20T07:19:19;40.97;;;17.85;;
45208;SDS011;30951;43.994;26.260;2022-11-20T07:21:45;40.60;;;17.85;;
45208;SDS011;30951;43.994;26.260;2022-11-20T07:24:10;46.28;;;20.50;;
45208;SDS011;30951;43.994;26.260;2022-11-20T07:26:36;48.00;;;20.65;;
45208;SDS011;30951;43.994;26.260;2022-11-20T07:29:01;43.47;;;19.02;;
45208;SDS011;30951;43.994;26.260;2022-11-20T07:31:26;37.42;;;17.15;;
45208;SDS011;30951;43.994;26.260;2022-11-20T07:33:52;39.03;;;17.50;;
45208;SDS011;30951;43.994;26.260;2022-11-20T07:36:17;34.05;;;16.33;;
45208;SDS011;30951;43.994;26.260;2022-11-20T07:38:43;37.53;;;16.50;;
45208;SDS011;30951;43.994;26.260;2022-11-20T07:41:08;34.88;;;15.25;;
45208;SDS011;30951;43.994;26.260;2022-11-20T07:43:34;28.13;;;15.70;;
45208;SDS011;30951;43.994;26.260;2022-11-20T07:45:59;41.60;;;18.55;;
45208;SDS011;30951;43.994;26.260;2022-11-20T07:48:25;40.75;;;17.50;;
45208;SDS011;30951;43.994;26.260;2022-11-20T07:50:54;43.50;;;16.88;;
45208;SDS011;30951;43.994;26.260;2022-11-20T07:53:20;31.45;;;16.70;;
45208;SDS011;30951;43.994;26.260;2022-11-20T07:55:46;33.63;;;16.30;;
45208;SDS011;30951;43.994;26.260;2022-11-20T07:58:12;38.88;;;15.77;;
45208;SDS011;30951;43.994;26.260;2022-11-20T08:00:39;36.97;;;16.38;;
45208;SDS011;30951;43.994;26.260;2022-11-20T08:03:05;34.10;;;16.33;;
45208;SDS011;30951;43.994;26.260;2022-11-20T08:05:31;26.90;;;14.48;;
45208;SDS011;30951;43.994;26.260;2022-11-20T08:07:56;39.97;;;16.50;;
45208;SDS011;30951;43.994;26.260;2022-11-20T08:10:22;37.00;;;16.88;;
45208;SDS011;30951;43.994;26.260;2022-11-20T08:12:48;36.20;;;14.98;;
45208;SDS011;30951;43.994;26.260;2022-11-20T08:15:33;34.00;;;15.00;;
45208;SDS011;30951;43.994;26.260;2022-11-20T08:18:03;32.90;;;15.98;;
45208;SDS011;30951;43.994;26.260;2022-11-20T08:20:32;39.45;;;14.98;;
45208;SDS011;30951;43.994;26.260;2022-11-20T08:22:59;25.48;;;13.98;;
45208;SDS011;30951;43.994;26.260;2022-11-20T08:25:29;29.65;;;14.40;;
45208;SDS011;30951;43.994;26.260;2022-11-20T08:27:56;33.60;;;13.13;;
45208;SDS011;30951;43.994;26.260;2022-11-20T08:30:26;27.90;;;14.07;;
45208;SDS011;30951;43.994;26.260;2022-11-20T08:32:51;39.60;;;18.23;;
45208;SDS011;30951;43.994;26.260;2022-11-20T08:35:18;29.27;;;14.13;;
45208;SDS011;30951;43.994;26.260;2022-11-20T08:37:47;36.65;;;15.15;;
45208;SDS011;30951;43.994;26.260;2022-11-20T08:40:13;30.98;;;15.38;;
45208;SDS011;30951;43.994;26.260;2022-11-20T08:42:51;37.72;;;13.77;;
45208;SDS011;30951;43.994;26.260;2022-11-20T08:45:16;29.52;;;15.27;;
45208;SDS011;30951;43.994;26.260;2022-11-20T08:47:44;48.08;;;16.52;;
45208;SDS011;30951;43.994;26.260;2022-11-20T08:50:10;31.70;;;16.35;;
45208;SDS011;30951;43.994;26.260;2022-11-20T08:52:37;41.33;;;18.85;;
45208;SDS011;30951;43.994;26.260;2022-11-20T08:55:03;39.22;;;16.45;;
45208;SDS011;30951;43.994;26.260;2022-11-20T08:57:33;40.65;;;17.67;;
45208;SDS011;30951;43.994;26.260;2022-11-20T08:59:59;33.80;;;16.95;;
45208;SDS011;30951;43.994;26.260;2022-11-20T09:02:24;37.17;;;17.27;;
45208;SDS011;30951;43.994;26.260;2022-11-20T09:04:50;44.90;;;18.50;;
45208;SDS011;30951;43.994;26.260;2022-11-20T09:07:16;47.25;;;20.45;;
45208;SDS011;30951;43.994;26.260;2022-11-20T09:09:41;56.13;;;21.75;;
45208;SDS011;30951;43.994;26.260;2022-11-20T09:12:07;52.85;;;20.02;;
45208;SDS011;30951;43.994;26.260;2022-11-20T09:14:32;50.03;;;21.88;;
45208;SDS011;30951;43.994;26.260;2022-11-20T09:16:58;44.90;;;20.38;;
45208;SDS011;30951;43.994;26.260;2022-11-20T09:19:24;51.35;;;20.38;;
45208;SDS011;30951;43.994;26.260;2022-11-20T09:21:50;48.65;;;20.83;;
45208;SDS011;30951;43.994;26.260;2022-11-20T09:24:15;43.05;;;19.38;;
45208;SDS011;30951;43.994;26.260;2022-11-20T09:26:41;46.35;;;20.10;;
45208;SDS011;30951;43.994;26.260;2022-11-20T09:29:07;43.67;;;20.67;;
45208;SDS011;30951;43.994;26.260;2022-11-20T09:31:32;41.58;;;20.95;;
45208;SDS011;30951;43.994;26.260;2022-11-20T09:33:58;48.20;;;22.30;;
45208;SDS011;30951;43.994;26.260;2022-11-20T09:36:23;40.08;;;19.45;;
45208;SDS011;30951;43.994;26.260;2022-11-20T09:38:48;37.97;;;17.80;;
45208;SDS011;30951;43.994;26.260;2022-11-20T09:49:20;44.33;;;18.35;;
45208;SDS011;30951;43.994;26.260;2022-11-20T09:54:44;33.45;;;17.70;;
45208;SDS011;30951;43.994;26.260;2022-11-20T09:57:10;40.42;;;19.45;;
45208;SDS011;30951;43.994;26.260;2022-11-20T10:02:12;38.40;;;18.83;;
45208;SDS011;30951;43.994;26.260;2022-11-20T10:04:47;40.88;;;19.73;;
45208;SDS011;30951;43.994;26.260;2022-11-20T10:07:22;38.33;;;20.42;;
45208;SDS011;30951;43.994;26.260;2022-11-20T10:09:53;39.47;;;17.95;;
45208;SDS011;30951;43.994;26.260;2022-11-20T10:12:27;34.42;;;18.58;;
45208;SDS011;30951;43.994;26.260;2022-11-20T10:26:16;35.55;;;18.75;;
45208;SDS011;30951;43.994;26.260;2022-11-20T10:31:34;49.47;;;25.05;;
45208;SDS011;30951;43.994;26.260;2022-11-20T10:34:21;42.35;;;22.55;;
45208;SDS011;30951;43.994;26.260;2022-11-20T10:37:00;45.60;;;22.88;;
45208;SDS011;30951;43.994;26.260;2022-11-20T10:39:33;37.17;;;20.35;;
45208;SDS011;30951;43.994;26.260;2022-11-20T10:42:03;37.58;;;19.98;;
45208;SDS011;30951;43.994;26.260;2022-11-20T10:44:34;30.52;;;16.92;;
45208;SDS011;30951;43.994;26.260;2022-11-20T10:47:18;33.25;;;15.60;;
45208;SDS011;30951;43.994;26.260;2022-11-20T10:49:48;37.22;;;16.08;;
45208;SDS011;30951;43.994;26.260;2022-11-20T10:52:20;34.58;;;14.93;;
45208;SDS011;30951;43.994;26.260;2022-11-20T10:54:59;41.22;;;17.48;;
45208;SDS011;30951;43.994;26.260;2022-11-20T10:57:42;40.92;;;16.92;;
45208;SDS011;30951;43.994;26.260;2022-11-20T11:00:16;44.92;;;17.88;;
45208;SDS011;30951;43.994;26.260;2022-11-20T11:02:48;41.28;;;18.60;;
45208;SDS011;30951;43.994;26.260;2022-11-20T11:07:50;42.78;;;15.80;;
45208;SDS011;30951;43.994;26.260;2022-11-20T11:10:20;79.68;;;45.03;;
45208;SDS011;30951;43.994;26.260;2022-11-20T11:12:48;71.18;;;42.03;;
45208;SDS011;30951;43.994;26.260;2022-11-20T11:15:15;33.53;;;15.90;;
45208;SDS011;30951;43.994;26.260;2022-11-20T11:17:50;54.85;;;24.50;;
45208;SDS011;30951;43.994;26.260;2022-11-20T11:20:20;74.03;;;39.72;;
45208;SDS011;30951;43.994;26.260;2022-11-20T11:27:49;44.88;;;18.65;;
45208;SDS011;30951;43.994;26.260;2022-11-20T11:30:16;43.63;;;20.00;;
45208;SDS011;30951;43.994;26.260;2022-11-20T11:32:42;62.28;;;26.58;;
45208;SDS011;30951;43.994;26.260;2022-11-20T11:35:27;59.15;;;18.98;;
45208;SDS011;30951;43.994;26.260;2022-11-20T11:38:04;44.75;;;18.40;;
45208;SDS011;30951;43.994;26.260;2022-11-20T11:40:32;41.97;;;17.75;;
45208;SDS011;30951;43.994;26.260;2022-11-20T11:43:01;41.08;;;19.25;;
45208;SDS011;30951;43.994;26.260;2022-11-20T11:45:29;48.03;;;18.67;;
45208;SDS011;30951;43.994;26.260;2022-11-20T11:47:58;48.13;;;23.67;;
45208;SDS011;30951;43.994;26.260;2022-11-20T11:50:29;58.08;;;22.58;;
45208;SDS011;30951;43.994;26.260;2022-11-20T11:53:07;42.20;;;20.30;;
45208;SDS011;30951;43.994;26.260;2022-11-20T12:00:58;53.65;;;22.88;;
45208;SDS011;30951;43.994;26.260;2022-11-20T12:03:29;43.30;;;20.95;;
45208;SDS011;30951;43.994;26.260;2022-11-20T12:06:14;40.95;;;17.88;;
45208;SDS011;30951;43.994;26.260;2022-11-20T12:11:29;45.53;;;18.75;;
45208;SDS011;30951;43.994;26.260;2022-11-20T12:14:19;48.72;;;19.65;;
45208;SDS011;30951;43.994;26.260;2022-11-20T12:16:49;46.35;;;19.80;;
45208;SDS011;30951;43.994;26.260;2022-11-20T12:19:15;50.78;;;19.92;;
45208;SDS011;30951;43.994;26.260;2022-11-20T12:27:27;53.10;;;21.85;;
45208;SDS011;30951;43.994;26.260;2022-11-20T12:38:45;62.45;;;22.10;;
45208;SDS011;30951;43.994;26.260;2022-11-20T12:50:30;68.07;;;22.17;;
45208;SDS011;30951;43.994;26.260;2022-11-20T12:52:48;52.70;;;21.27;;
45208;SDS011;30951;43.994;26.260;2022-11-20T12:55:25;53.63;;;22.40;;
45208;SDS011;30951;43.994;26.260;2022-11-20T13:01:22;50.47;;;19.70;;
45208;SDS011;30951;43.994;26.260;2022-11-20T13:06:44;52.28;;;21.73;;
45208;SDS011;30951;43.994;26.260;2022-11-20T13:09:14;54.33;;;19.45;;
45208;SDS011;30951;43.994;26.260;2022-11-20T13:19:52;47.28;;;22.10;;
45208;SDS011;30951;43.994;26.260;2022-11-20T13:22:25;57.90;;;21.63;;
45208;SDS011;30951;43.994;26.260;2022-11-20T13:24:52;64.13;;;24.08;;
45208;SDS011;30951;43.994;26.260;2022-11-20T13:27:19;57.13;;;23.35;;
45208;SDS011;30951;43.994;26.260;2022-11-20T13:32:56;56.15;;;23.02;;
45208;SDS011;30951;43.994;26.260;2022-11-20T13:35:35;51.83;;;22.10;;
45208;SDS011;30951;43.994;26.260;2022-11-20T13:38:10;44.83;;;20.75;;
45208;SDS011;30951;43.994;26.260;2022-11-20T13:41:00;48.25;;;21.90;;
45208;SDS011;30951;43.994;26.260;2022-11-20T13:43:49;54.40;;;23.15;;
45208;SDS011;30951;43.994;26.260;2022-11-20T13:46:15;55.95;;;23.85;;
45208;SDS011;30951;43.994;26.260;2022-11-20T13:48:41;65.00;;;24.73;;
45208;SDS011;30951;43.994;26.260;2022-11-20T13:59:26;69.32;;;26.65;;
45208;SDS011;30951;43.994;26.260;2022-11-20T14:01:52;65.15;;;26.00;;
45208;SDS011;30951;43.994;26.260;2022-11-20T14:04:19;68.25;;;26.45;;
45208;SDS011;30951;43.994;26.260;2022-11-20T14:07:06;73.35;;;26.98;;
45208;SDS011;30951;43.994;26.260;2022-11-20T14:09:32;71.55;;;28.80;;
45208;SDS011;30951;43.994;26.260;2022-11-20T14:11:59;71.82;;;28.30;;
45208;SDS011;30951;43.994;26.260;2022-11-20T14:14:28;89.18;;;34.28;;
45208;SDS011;30951;43.994;26.260;2022-11-20T14:17:05;224.05;;;70.22;;
45208;SDS011;30951;43.994;26.260;2022-11-20T14:19:40;300.73;;;79.50;;
45208;SDS011;30951;43.994;26.260;2022-11-20T14:22:08;75.03;;;29.17;;
45208;SDS011;30951;43.994;26.260;2022-11-20T14:24:43;71.60;;;29.75;;
45208;SDS011;30951;43.994;26.260;2022-11-20T14:27:11;88.57;;;31.10;;
45208;SDS011;30951;43.994;26.260;2022-11-20T14:29:39;85.63;;;31.00;;
45208;SDS011;30951;43.994;26.260;2022-11-20T14:32:05;113.75;;;37.08;;
45208;SDS011;30951;43.994;26.260;2022-11-20T14:34:32;191.55;;;51.05;;
45208;SDS011;30951;43.994;26.260;2022-11-20T14:37:02;234.65;;;60.95;;
45208;SDS011;30951;43.994;26.260;2022-11-20T14:39:36;173.05;;;48.28;;
45208;SDS011;30951;43.994;26.260;2022-11-20T14:42:18;102.97;;;34.63;;
45208;SDS011;30951;43.994;26.260;2022-11-20T14:44:45;85.57;;;32.47;;
45208;SDS011;30951;43.994;26.260;2022-11-20T14:47:15;133.52;;;42.15;;
45208;SDS011;30951;43.994;26.260;2022-11-20T14:49:43;108.88;;;39.60;;
45208;SDS011;30951;43.994;26.260;2022-11-20T14:52:19;86.25;;;31.83;;
45208;SDS011;30951;43.994;26.260;2022-11-20T14:54:47;76.07;;;29.73;;
45208;SDS011;30951;43.994;26.260;2022-11-20T14:57:24;83.35;;;29.75;;
45208;SDS011;30951;43.994;26.260;2022-11-20T15:02:39;84.68;;;33.17;;
45208;SDS011;30951;43.994;26.260;2022-11-20T15:05:09;132.88;;;54.25;;
45208;SDS011;30951;43.994;26.260;2022-11-20T15:07:36;108.20;;;49.42;;
45208;SDS011;30951;43.994;26.260;2022-11-20T15:10:06;80.00;;;34.78;;
45208;SDS011;30951;43.994;26.260;2022-11-20T15:12:33;74.60;;;34.45;;
45208;SDS011;30951;43.994;26.260;2022-11-20T15:15:01;83.65;;;35.42;;
45208;SDS011;30951;43.994;26.260;2022-11-20T15:17:28;71.90;;;32.08;;
45208;SDS011;30951;43.994;26.260;2022-11-20T15:19:55;77.65;;;29.65;;
45208;SDS011;30951;43.994;26.260;2022-11-20T15:22:21;69.60;;;27.85;;
45208;SDS011;30951;43.994;26.260;2022-11-20T15:24:46;69.80;;;27.58;;
45208;SDS011;30951;43.994;26.260;2022-11-20T15:27:12;75.97;;;29.05;;
45208;SDS011;30951;43.994;26.260;2022-11-20T15:29:37;83.90;;;30.15;;
45208;SDS011;30951;43.994;26.260;2022-11-20T15:32:03;84.20;;;31.95;;
45208;SDS011;30951;43.994;26.260;2022-11-20T15:34:28;71.32;;;30.00;;
45208;SDS011;30951;43.994;26.260;2022-11-20T15:36:54;69.93;;;27.98;;
45208;SDS011;30951;43.994;26.260;2022-11-20T15:39:20;81.30;;;25.48;;
45208;SDS011;30951;43.994;26.260;2022-11-20T15:41:46;56.42;;;22.50;;
45208;SDS011;30951;43.994;26.260;2022-11-20T15:44:12;64.68;;;28.48;;
45208;SDS011;30951;43.994;26.260;2022-11-20T15:46:38;57.10;;;22.80;;
45208;SDS011;30951;43.994;26.260;2022-11-20T15:49:08;72.38;;;32.85;;
45208;SDS011;30951;43.994;26.260;2022-11-20T15:51:37;98.20;;;44.25;;
45208;SDS011;30951;43.994;26.260;2022-11-20T15:54:11;84.63;;;32.35;;
45208;SDS011;30951;43.994;26.260;2022-11-20T15:56:38;81.07;;;32.22;;
45208;SDS011;30951;43.994;26.260;2022-11-20T15:59:04;62.17;;;27.75;;
45208;SDS011;30951;43.994;26.260;2022-11-20T16:01:29;65.68;;;29.95;;
45208;SDS011;30951;43.994;26.260;2022-11-20T16:03:55;104.63;;;45.22;;